Flight Track Log - Related Links

Times and Time Zones

All times are in EDT time to prevent confusion due to time zone crossing. See the GTX256 flight status page for this flight to view local times or setup timezone preferences in your user account.

Time Position Orientation Groundspeed Altitude Reporting Facility
EDT Latitude Longitude Course Direction KTS MPH feet Rate Location/Type
Thu 08:57:02 PM 29.5414 -98.4617 315° West 104 120 1,200  Level Houston Center
Thu 08:57:57 PM 29.5603 -98.4833 315° West 117 135 1,900 761 Climbing Houston Center
Thu 08:58:13 PM 29.5678 -98.4897 323° Northwest 112 129 2,100 700 Climbing Houston Center
Thu 08:58:57 PM 29.5814 -98.5097 308° West 117 135 2,600 581 Climbing Houston Center
Thu 08:59:15 PM 29.5917 -98.5144 338° Northwest 113 130 2,700 689 Climbing Houston Center
Thu 08:59:58 PM 29.6150 -98.5081 13° North 112 129 3,300 692 Climbing Houston Center
Thu 09:00:59 PM 29.6433 -98.4975 18° North 106 122 3,900 519 Climbing Houston Center
Thu 09:01:19 PM 29.6533 -98.4936 19° North 111 128 4,000 519 Climbing Houston Center
Thu 09:02:20 PM 29.6844 -98.4853 13° North 114 131 4,600 426 Climbing Houston Center
Thu 09:04:08 PM 29.7400 -98.4672 16° North 122 140 5,200 176 Climbing Fort Worth Center
Thu 09:05:10 PM 29.7828 -98.4569 12° North 142 163 5,100 -49 Descending Fort Worth Center
Thu 09:06:11 PM 29.8369 -98.4414 14° North 158 182 5,100 98 Level Fort Worth Center
Thu 09:07:13 PM 29.8808 -98.4303 12° North 160 184 5,300 48 Climbing Fort Worth Center
Thu 09:08:15 PM 29.9275 -98.4181 13° North 163 188 5,200 -86 Descending Fort Worth Center
Thu 09:09:32 PM 29.9922 -98.3972 16° North 170 196 5,100 -87 Descending Houston Center
Thu 09:10:33 PM 30.0406 -98.3839 13° North 177 204 5,000  Descending Houston Center
Thu 09:11:35 PM 30.0889 -98.3686 15° North 180 207 5,100 48 Climbing Houston Center
Thu 09:12:37 PM 30.1406 -98.3556 12° North 179 206 5,100  Level Houston Center
Thu 09:13:38 PM 30.1900 -98.3461 North 179 206 5,100  Level Houston Center
Thu 09:14:40 PM 30.2433 -98.3378 North 179 206 5,100  Level Houston Center
Thu 09:15:42 PM 30.2925 -98.3264 11° North 179 206 5,100  Level Houston Center
Thu 09:16:43 PM 30.3364 -98.3169 11° North 179 206 5,100  Level Houston Center
Thu 09:17:45 PM 30.3853 -98.3072 10° North 180 207 5,100  Level Houston Center
Thu 09:18:47 PM 30.4347 -98.2969 10° North 179 206 5,100  Level Houston Center
Thu 09:19:48 PM 30.4942 -98.2858 North 179 206 5,100  Level Houston Center
Thu 09:20:50 PM 30.5428 -98.2744 11° North 180 207 5,100  Level Houston Center
Thu 09:21:51 PM 30.5881 -98.2617 14° North 179 206 5,100  Level Houston Center
Thu 09:22:53 PM 30.6378 -98.2539 North 177 204 5,100  Level Houston Center
Thu 09:23:54 PM 30.6858 -98.2442 10° North 177 204 5,100  Level Houston Center
Thu 09:24:56 PM 30.7350 -98.2319 12° North 177 204 5,100  Level Houston Center
Thu 09:25:57 PM 30.7844 -98.2225 North 177 204 5,100  Level Houston Center
Thu 09:26:59 PM 30.8333 -98.2153 North 177 204 5,100 -50 Level Houston Center
Thu 09:27:58 PM 30.8833 -98.2078 North 177 204 5,000  Descending Fort Worth Center
Thu 09:28:59 PM 30.9306 -98.1964 12° North 177 204 5,100 65 Climbing Fort Worth Center
Thu 09:29:31 PM 30.9625 -98.1903 North 172 198 5,100  Level Fort Worth Center
Thu 09:30:01 PM 30.9881 -98.1858 North 177 204 5,100  Level Fort Worth Center
Thu 09:30:31 PM 31.0100 -98.1803 12° North 175 201 5,100  Level Fort Worth Center
Thu 09:31:03 PM 31.0353 -98.1753 10° North 177 204 5,100  Level Fort Worth Center
Thu 09:31:32 PM 31.0594 -98.1725 North 174 200 5,100  Level Fort Worth Center
Thu 09:32:04 PM 31.0836 -98.1658 13° North 177 204 5,100  Level Fort Worth Center
Thu 09:32:32 PM 31.1064 -98.1600 12° North 175 201 5,100  Level Fort Worth Center
Thu 09:33:33 PM 31.1558 -98.1497 10° North 177 204 5,100 -63 Level Fort Worth Center
Thu 09:34:07 PM 31.1806 -98.1433 12° North 176 203 5,000  Descending Fort Worth Center
Thu 09:34:40 PM 31.2114 -98.1383 North 180 207 5,100 97 Climbing Fort Worth Center
Thu 09:35:09 PM 31.2289 -98.1336 13° North 177 204 5,100  Level Fort Worth Center
Thu 09:35:40 PM 31.2583 -98.1258 13° North 176 203 5,100 -98 Level Fort Worth Center
Thu 09:36:10 PM 31.2756 -98.1200 16° North 176 203 5,000 -98 Descending Fort Worth Center
Thu 09:36:41 PM 31.3072 -98.1106 14° North 173 199 5,000 97 Level Fort Worth Center
Thu 09:37:12 PM 31.3228 -98.1064 13° North 176 203 5,100 179 Climbing Fort Worth Center
Thu 09:37:48 PM 31.3564 -98.0978 12° North 172 198 5,200 492 Climbing Fort Worth Center
Thu 09:38:13 PM 31.3728 -98.0842 35° Northeast 172 198 5,600 300 Climbing Fort Worth Center
Thu 09:38:48 PM 31.3903 -98.0653 43° Northeast 148 170 5,500  Descending Fort Worth Center
Thu 09:39:15 PM 31.4064 -98.0531 33° Northeast 161 185 5,600  Climbing Fort Worth Center
Thu 09:39:43 PM 31.4233 -98.0403 33° Northeast 167 192 5,500  Descending Fort Worth Center
Thu 09:40:16 PM 31.4453 -98.0233 33° Northeast 160 184 5,600 100 Climbing Fort Worth Center
Thu 09:40:43 PM 31.4639 -98.0092 33° Northeast 169 194 5,600  Level Fort Worth Center
Thu 09:41:18 PM 31.4858 -97.9908 35° Northeast 165 190 5,600  Level Fort Worth Center
Thu 09:42:19 PM 31.5233 -97.9603 35° Northeast 166 191 5,600  Level Fort Worth Center
Thu 09:43:21 PM 31.5617 -97.9289 35° Northeast 166 191 5,600  Level Fort Worth Center
Thu 09:44:22 PM 31.5992 -97.8978 35° Northeast 166 191 5,600  Level Fort Worth Center
Thu 09:45:24 PM 31.6375 -97.8683 33° Northeast 166 191 5,600  Level Fort Worth Center
Thu 09:46:25 PM 31.6742 -97.8378 35° Northeast 165 190 5,600  Level Fort Worth Center
Thu 09:47:27 PM 31.7200 -97.8017 34° Northeast 165 190 5,600 -49 Level Fort Worth Center
Thu 09:48:28 PM 31.7592 -97.7711 34° Northeast 165 190 5,500 -244 Descending Fort Worth Center
Thu 09:49:30 PM 31.8000 -97.7392 34° Northeast 169 194 5,100 -341 Descending Fort Worth Center
Thu 09:50:31 PM 31.8397 -97.7025 38° Northeast 175 201 4,800 -293 Descending Fort Worth Center
Thu 09:51:33 PM 31.8792 -97.6694 35° Northeast 175 201 4,500 -292 Descending Fort Worth Center
Thu 09:53:36 PM 31.9628 -97.5981 36° Northeast 174 200 3,900 -293 Descending Fort Worth Center
Thu 09:54:37 PM 32.0025 -97.5653 35° Northeast 173 199 3,600 -146 Descending Fort Worth Center
Thu 09:55:39 PM 32.0403 -97.5342 35° Northeast 168 193 3,600  Level Fort Worth Center
Thu 09:56:40 PM 32.0797 -97.5014 35° Northeast 162 186 3,600  Level Fort Worth Center
Thu 09:57:41 PM 32.1169 -97.4689 36° Northeast 164 189 3,600  Level Fort Worth Center
Thu 09:58:43 PM 32.1533 -97.4392 35° Northeast 163 188 3,600  Level Fort Worth Center
Thu 09:59:44 PM 32.1936 -97.4053 35° Northeast 163 188 3,600  Level Fort Worth Center
Thu 10:00:46 PM 32.2297 -97.3736 37° Northeast 162 186 3,600  Level Fort Worth Center
Thu 10:01:47 PM 32.2669 -97.3406 37° Northeast 166 191 3,600  Level Fort Worth Center
Thu 10:02:49 PM 32.3019 -97.2986 45° Northeast 166 191 3,600  Level Fort Worth Center
Thu 10:03:50 PM 32.3386 -97.2661 37° Northeast 165 190 3,600  Level Fort Worth Center
Thu 10:04:52 PM 32.3767 -97.2339 36° Northeast 166 191 3,600  Level Fort Worth Center
Thu 10:06:55 PM 32.4525 -97.1697 36° Northeast 167 192 3,600  Level Fort Worth Center
Thu 10:07:56 PM 32.4944 -97.1372 33° Northeast 167 192 3,600 -49 Level Fort Worth Center
Thu 10:08:57 PM 32.5314 -97.1089 33° Northeast 166 191 3,500 -244 Descending Fort Worth Center
Thu 10:09:59 PM 32.5742 -97.0736 35° Northeast 172 198 3,100 -488 Descending Fort Worth Center
Thu 10:11:00 PM 32.6164 -97.0403 34° Northeast 178 205 2,500 -293 Descending Fort Worth Center
Thu 10:12:02 PM 32.6536 -97.0111 33° Northeast 163 188 2,500 49 Level Fort Worth Center
Thu 10:13:03 PM 32.6931 -96.9828 31° Northeast 157 181 2,600 49 Climbing Fort Worth Center
Thu 10:14:05 PM 32.7258 -96.9542 36° Northeast 150 173 2,600 -146 Level Fort Worth Center
Thu 10:15:06 PM 32.7597 -96.9283 33° Northeast 149 171 2,300 -390 Descending Fort Worth Center
Thu 10:16:08 PM 32.7975 -96.9017 31° Northeast 147 169 1,800 -341 Descending Fort Worth Center
Thu 10:17:09 PM 32.8294 -96.8936 12° North 126 145 1,600 -341 Descending Fort Worth Center
Thu 10:18:11 PM 32.8553 -96.8781 27° Northeast 112 129 1,100 -390 Descending Fort Worth Center
Thu 10:19:12 PM 32.8647 -96.8542 65° Northeast 104 120 800 -295 Descending Fort Worth Center
Thu 10:21:00 PM 32.8471 -96.8518 173° South  Level Estimated

Login

Don't have an account? Register now (free) for customized features, flight alerts, and more!